createdAt,value
2018-07-24T00:01:13.261Z,40.03
2018-07-24T00:03:42.381Z,39.53
2018-07-24T00:06:11.486Z,43.87
2018-07-24T00:08:40.593Z,41.93
2018-07-24T00:11:09.786Z,43.20
2018-07-24T00:13:39.513Z,37.20
2018-07-24T00:16:08.673Z,55.13
2018-07-24T00:18:37.785Z,43.80
2018-07-24T00:21:07.414Z,41.63
2018-07-24T00:23:36.689Z,46.90
2018-07-24T00:26:05.817Z,43.63
2018-07-24T00:28:35.798Z,50.50
2018-07-24T00:31:05.125Z,46.20
2018-07-24T00:34:39.534Z,46.47
2018-07-24T00:37:08.237Z,47.03
2018-07-24T00:39:37.401Z,45.67
2018-07-24T00:42:06.581Z,47.20
2018-07-24T00:44:35.766Z,43.07
2018-07-24T00:47:04.910Z,49.90
2018-07-24T00:49:34.014Z,54.40
2018-07-24T00:52:03.193Z,50.07
2018-07-24T00:54:33.578Z,50.80
2018-07-24T00:57:02.934Z,47.10
2018-07-24T00:59:32.054Z,48.33
2018-07-24T01:02:01.178Z,54.83
2018-07-24T01:04:30.305Z,49.80
2018-07-24T01:06:59.411Z,52.23
2018-07-24T01:09:28.537Z,47.57
2018-07-24T01:11:58.077Z,46.60
2018-07-24T01:14:27.193Z,52.37
2018-07-24T01:16:56.341Z,47.47
2018-07-24T01:19:25.879Z,44.60
2018-07-24T01:21:54.997Z,48.13
2018-07-24T01:24:24.129Z,45.53
2018-07-24T01:26:53.751Z,45.70
2018-07-24T01:29:23.549Z,43.50
2018-07-24T01:31:52.754Z,55.77
2018-07-24T01:34:21.920Z,46.13
2018-07-24T01:36:51.025Z,43.60
2018-07-24T01:39:20.165Z,46.43
2018-07-24T01:41:54.357Z,45.70
2018-07-24T01:44:23.517Z,46.80
2018-07-24T01:46:53.068Z,50.70
2018-07-24T01:49:23.830Z,46.30
2018-07-24T01:51:52.922Z,48.30
2018-07-24T01:54:22.030Z,50.90
2018-07-24T01:56:51.961Z,52.80
2018-07-24T01:59:21.077Z,50.63
2018-07-24T02:01:51.762Z,47.37
2018-07-24T02:04:20.882Z,51.20
2018-07-24T02:06:50.014Z,50.57
2018-07-24T02:09:19.138Z,53.70
2018-07-24T02:11:48.253Z,52.40
2018-07-24T02:14:17.390Z,52.27
2018-07-24T02:16:47.263Z,61.30
2018-07-24T02:19:16.600Z,55.43
2018-07-24T02:21:45.737Z,53.90
2018-07-24T02:24:15.217Z,63.80
2018-07-24T02:26:44.304Z,60.37
2018-07-24T02:29:13.506Z,66.97
2018-07-24T02:31:43.425Z,57.13
2018-07-24T02:34:13.314Z,70.83
2018-07-24T02:36:42.658Z,64.63
2018-07-24T02:39:13.512Z,66.10
2018-07-24T02:41:42.742Z,72.67
2018-07-24T02:44:11.859Z,85.17
2018-07-24T02:46:40.990Z,65.33
2018-07-24T02:49:10.123Z,71.83
2018-07-24T02:51:39.435Z,75.27
2018-07-24T02:54:08.529Z,82.30
2018-07-24T02:56:37.653Z,73.93
2018-07-24T02:59:07.226Z,68.10
2018-07-24T03:01:36.355Z,70.73
2018-07-24T03:04:05.666Z,76.60
2018-07-24T03:06:37.281Z,69.87
2018-07-24T03:09:10.695Z,56.90
2018-07-24T03:11:39.846Z,65.30
2018-07-24T03:14:09.865Z,57.07
2018-07-24T03:16:39.011Z,56.23
2018-07-24T03:19:08.117Z,61.87
2018-07-24T03:21:37.226Z,49.00
2018-07-24T03:24:06.363Z,55.10
2018-07-24T03:26:35.450Z,58.50
2018-07-24T03:29:04.537Z,49.17
2018-07-24T03:31:33.750Z,48.13
2018-07-24T03:34:02.827Z,51.40
2018-07-24T03:36:32.050Z,50.60
2018-07-24T03:39:01.207Z,49.50
2018-07-24T03:41:30.374Z,49.50
2018-07-24T03:43:59.473Z,46.47
2018-07-24T03:46:28.578Z,51.67
2018-07-24T03:48:57.692Z,56.10
2018-07-24T03:51:27.126Z,53.63
2018-07-24T03:53:58.821Z,50.63
2018-07-24T03:56:27.966Z,54.00
2018-07-24T03:58:57.099Z,56.40
2018-07-24T04:01:26.255Z,55.73
2018-07-24T04:03:55.382Z,66.77
2018-07-24T04:06:24.546Z,56.10
2018-07-24T04:08:53.667Z,60.20
2018-07-24T04:11:22.792Z,50.47
2018-07-24T04:13:51.923Z,56.63
2018-07-24T04:16:21.082Z,50.70
2018-07-24T04:18:50.658Z,50.27
2018-07-24T04:21:20.357Z,49.37
2018-07-24T04:23:49.901Z,50.60
2018-07-24T04:26:19.021Z,48.80
2018-07-24T04:28:48.114Z,50.13
2018-07-24T04:31:17.572Z,52.37
2018-07-24T04:33:47.079Z,44.87
2018-07-24T04:36:16.754Z,47.60
2018-07-24T04:38:46.706Z,41.80
2018-07-24T04:41:15.861Z,41.97
2018-07-24T04:43:44.990Z,40.50
2018-07-24T04:46:14.458Z,35.30
2018-07-24T04:48:43.645Z,31.57
2018-07-24T04:51:12.770Z,34.33
2018-07-24T04:53:41.894Z,33.30
2018-07-24T04:56:10.993Z,31.43
2018-07-24T04:58:40.098Z,30.77
2018-07-24T05:01:09.631Z,29.47
2018-07-24T05:03:38.736Z,31.30
2018-07-24T05:06:07.878Z,31.77
2018-07-24T05:08:37.627Z,29.20
2018-07-24T05:11:07.082Z,29.07
2018-07-24T05:13:36.837Z,31.47
2018-07-24T05:16:07.907Z,32.33
2018-07-24T05:18:37.078Z,31.70
2018-07-24T05:21:09.786Z,30.43
2018-07-24T05:23:39.074Z,27.73
2018-07-24T05:26:08.250Z,27.47
2018-07-24T05:28:37.790Z,28.00
2018-07-24T05:31:06.902Z,28.23
2018-07-24T05:33:36.882Z,29.57
2018-07-24T05:36:05.989Z,28.70
2018-07-24T05:38:35.140Z,29.30
2018-07-24T05:41:04.326Z,27.53
2018-07-24T05:43:33.449Z,25.53
2018-07-24T05:46:02.634Z,25.57
2018-07-24T05:48:32.381Z,28.93
2018-07-24T05:51:01.443Z,25.80
2018-07-24T05:53:30.798Z,27.53
2018-07-24T05:55:59.922Z,25.87
2018-07-24T05:58:29.502Z,27.80
2018-07-24T06:00:58.635Z,34.20
2018-07-24T06:03:27.912Z,32.67
2018-07-24T06:05:57.410Z,25.37
2018-07-24T06:08:26.574Z,25.77
2018-07-24T06:10:55.748Z,25.17
2018-07-24T06:13:25.094Z,24.43
2018-07-24T06:15:54.230Z,27.93
2018-07-24T06:18:23.335Z,25.87
2018-07-24T06:20:52.425Z,24.30
2018-07-24T06:23:21.534Z,26.87
2018-07-24T06:25:50.634Z,27.57
2018-07-24T06:28:19.750Z,26.80
2018-07-24T06:30:48.862Z,23.90
2018-07-24T06:33:18.306Z,24.10
2018-07-24T06:35:47.411Z,26.87
2018-07-24T06:38:16.533Z,26.13
2018-07-24T06:40:45.679Z,25.70
2018-07-24T06:43:14.798Z,23.37
2018-07-24T06:45:43.547Z,24.30
2018-07-24T06:48:12.865Z,25.73
2018-07-24T06:50:42.221Z,27.37
2018-07-24T06:53:11.322Z,26.70
2018-07-24T06:55:40.431Z,25.30
2018-07-24T06:58:09.570Z,26.60
2018-07-24T07:00:38.710Z,25.20
2018-07-24T07:03:08.185Z,26.70
2018-07-24T07:05:37.327Z,24.00
2018-07-24T07:08:06.431Z,24.30
2018-07-24T07:10:35.631Z,23.00
2018-07-24T07:13:04.748Z,23.17
2018-07-24T07:15:33.846Z,24.50
2018-07-24T07:18:02.954Z,23.27
2018-07-24T07:20:32.290Z,19.70
2018-07-24T07:23:01.394Z,21.87
2018-07-24T07:25:30.658Z,22.63
2018-07-24T07:27:59.773Z,22.07
2018-07-24T07:30:28.874Z,22.27
2018-07-24T07:32:58.185Z,21.60
2018-07-24T07:35:27.284Z,22.70
2018-07-24T07:37:56.410Z,21.90
2018-07-24T07:40:25.505Z,22.93
2018-07-24T07:42:54.841Z,22.60
2018-07-24T07:45:23.648Z,24.57
2018-07-24T07:47:52.711Z,26.00
2018-07-24T07:50:21.819Z,21.10
2018-07-24T07:52:50.936Z,21.60
2018-07-24T07:55:20.038Z,22.70
2018-07-24T07:57:49.186Z,24.77
2018-07-24T08:00:18.446Z,21.50
2018-07-24T08:02:47.550Z,22.47
2018-07-24T08:05:16.797Z,22.60
2018-07-24T08:07:45.894Z,19.90
2018-07-24T08:10:14.995Z,20.83
2018-07-24T08:12:44.143Z,19.73
2018-07-24T08:15:13.234Z,20.30
2018-07-24T08:17:42.350Z,20.60
2018-07-24T08:20:11.454Z,19.60
2018-07-24T08:22:40.565Z,18.17
2018-07-24T08:25:09.646Z,20.03
2018-07-24T08:27:38.790Z,18.50
2018-07-24T08:30:09.118Z,16.80
2018-07-24T08:32:38.220Z,16.97
2018-07-24T08:35:07.308Z,17.23
2018-07-24T08:37:36.791Z,18.63
2018-07-24T08:40:05.893Z,17.67
2018-07-24T08:42:35.183Z,16.03
2018-07-24T08:45:04.671Z,16.27
2018-07-24T08:47:33.350Z,16.47
2018-07-24T08:50:02.611Z,14.33
2018-07-24T08:52:31.763Z,15.23
2018-07-24T08:55:01.110Z,14.80
2018-07-24T08:57:29.926Z,13.70
2018-07-24T08:59:59.047Z,14.30
2018-07-24T09:02:28.158Z,17.80
2018-07-24T09:04:57.290Z,15.43
2018-07-24T09:07:26.435Z,13.43
2018-07-24T09:09:55.520Z,14.83
2018-07-24T09:12:24.630Z,14.17
2018-07-24T09:14:53.761Z,14.10
2018-07-24T09:17:22.861Z,14.97
2018-07-24T09:19:51.957Z,14.33
2018-07-24T09:22:21.094Z,14.10
2018-07-24T09:24:50.238Z,14.20
2018-07-24T09:27:19.365Z,14.50
2018-07-24T09:29:48.454Z,13.90
2018-07-24T09:32:17.590Z,14.83
2018-07-24T09:34:46.685Z,12.67
2018-07-24T09:37:15.958Z,13.20
2018-07-24T09:39:45.682Z,15.03
2018-07-24T09:42:14.774Z,11.77
2018-07-24T09:44:44.505Z,13.80
2018-07-24T09:47:13.894Z,13.50
2018-07-24T09:49:42.989Z,14.37
2018-07-24T09:52:12.094Z,14.43
2018-07-24T09:54:41.402Z,12.43
2018-07-24T09:57:10.507Z,11.80
2018-07-24T09:59:39.590Z,13.20
2018-07-24T10:02:08.727Z,13.67
2018-07-24T10:04:37.830Z,13.40
2018-07-24T10:07:06.934Z,14.13
2018-07-24T10:09:36.049Z,13.27
2018-07-24T10:12:05.191Z,12.80
2018-07-24T10:14:34.263Z,12.60
2018-07-24T10:17:03.371Z,12.50
2018-07-24T10:19:32.463Z,14.23
2018-07-24T10:22:01.574Z,15.60
2018-07-24T10:24:31.025Z,13.00
2018-07-24T10:27:00.109Z,13.53
2018-07-24T10:29:29.437Z,13.13
2018-07-24T10:31:59.338Z,13.90
2018-07-24T10:34:28.474Z,12.73
2018-07-24T10:36:57.590Z,13.43
2018-07-24T10:39:26.810Z,13.03
2018-07-24T10:41:56.499Z,14.93
2018-07-24T10:44:25.592Z,13.60
2018-07-24T10:46:54.841Z,13.37
2018-07-24T10:49:24.105Z,14.57
2018-07-24T10:51:53.354Z,14.30
2018-07-24T10:54:23.062Z,15.43
2018-07-24T10:56:52.749Z,15.27
2018-07-24T10:59:21.862Z,13.43
2018-07-24T11:01:51.458Z,12.80
2018-07-24T11:04:20.770Z,12.60
2018-07-24T11:06:50.489Z,11.77
2018-07-24T11:09:20.218Z,11.93
2018-07-24T11:11:49.862Z,12.17
2018-07-24T11:14:20.564Z,12.63
2018-07-24T11:16:49.701Z,19.87
2018-07-24T11:19:18.790Z,12.40
2018-07-24T11:21:48.283Z,13.70
2018-07-24T11:24:17.426Z,11.80
2018-07-24T11:26:46.517Z,12.30
2018-07-24T11:29:15.682Z,12.53
2018-07-24T11:31:44.801Z,11.93
2018-07-24T11:34:14.001Z,11.13
2018-07-24T11:36:43.171Z,11.70
2018-07-24T11:39:12.602Z,12.93
2018-07-24T11:41:41.701Z,13.30
2018-07-24T11:44:10.852Z,11.80
2018-07-24T11:46:40.215Z,11.43
2018-07-24T11:49:09.212Z,12.30
2018-07-24T11:51:38.378Z,11.63
2018-07-24T11:54:07.434Z,12.37
2018-07-24T11:56:36.577Z,13.20
2018-07-24T11:59:06.823Z,12.53
2018-07-24T12:01:36.003Z,11.73
2018-07-24T12:04:05.334Z,14.90
2018-07-24T12:06:34.498Z,12.17
2018-07-24T12:09:04.226Z,12.20
2018-07-24T12:11:33.555Z,11.67
2018-07-24T12:14:03.703Z,11.60
2018-07-24T12:16:33.058Z,11.13
2018-07-24T12:19:02.267Z,10.60
2018-07-24T12:21:31.503Z,12.00
2018-07-24T12:24:00.676Z,12.37
2018-07-24T12:26:29.769Z,12.30
2018-07-24T12:28:59.202Z,13.00
2018-07-24T12:31:28.329Z,13.20
2018-07-24T12:33:57.465Z,12.27
2018-07-24T12:36:26.605Z,12.20
2018-07-24T12:38:55.734Z,10.27
2018-07-24T12:41:24.458Z,14.13
2018-07-24T12:43:53.565Z,10.63
2018-07-24T12:46:22.769Z,11.47
2018-07-24T12:48:51.894Z,11.70
2018-07-24T12:51:21.050Z,10.83
2018-07-24T12:53:50.176Z,11.83
2018-07-24T12:56:19.282Z,10.00
2018-07-24T12:58:48.413Z,15.40
2018-07-24T13:01:17.507Z,10.23
2018-07-24T13:03:46.634Z,10.97
2018-07-24T13:06:15.806Z,11.83
2018-07-24T13:08:44.898Z,10.67
2018-07-24T13:11:14.138Z,12.20
2018-07-24T13:13:43.253Z,11.50
2018-07-24T13:16:12.603Z,12.03
2018-07-24T13:18:41.909Z,11.17
2018-07-24T13:21:11.653Z,10.70
2018-07-24T13:23:40.743Z,10.43
2018-07-24T13:26:10.070Z,12.23
2018-07-24T13:28:39.359Z,9.30
2018-07-24T13:31:09.102Z,10.03
2018-07-24T13:33:38.216Z,10.23
2018-07-24T13:36:07.802Z,12.20
2018-07-24T13:38:36.913Z,11.50
2018-07-24T13:41:06.964Z,9.93
2018-07-24T13:43:36.530Z,10.67
2018-07-24T13:46:05.811Z,10.77
2018-07-24T13:48:36.060Z,12.37
2018-07-24T13:51:06.217Z,11.30
2018-07-24T13:53:35.318Z,12.23
2018-07-24T13:56:04.517Z,10.37
2018-07-24T13:58:33.610Z,11.43
2018-07-24T14:01:02.706Z,11.70
2018-07-24T14:03:32.258Z,10.30
2018-07-24T14:06:01.526Z,9.67
2018-07-24T14:08:30.915Z,11.37
2018-07-24T14:10:59.953Z,10.43
2018-07-24T14:13:29.086Z,11.10
2018-07-24T14:15:58.183Z,10.90
2018-07-24T14:18:27.346Z,11.30
2018-07-24T14:20:56.834Z,10.97
2018-07-24T14:23:26.426Z,10.30
2018-07-24T14:25:55.790Z,10.73
2018-07-24T14:28:24.871Z,10.60
2018-07-24T14:30:56.503Z,10.00
2018-07-24T14:33:25.597Z,11.23
2018-07-24T14:35:54.689Z,10.80
2018-07-24T14:38:23.810Z,10.63
2018-07-24T14:40:53.306Z,10.70
2018-07-24T14:43:22.449Z,11.20
2018-07-24T14:45:52.374Z,9.97
2018-07-24T14:48:21.598Z,10.50
2018-07-24T14:50:50.698Z,11.00
2018-07-24T14:53:20.498Z,10.83
2018-07-24T14:55:49.574Z,11.97
2018-07-24T14:58:18.665Z,12.03
2018-07-24T15:00:47.804Z,11.40
2018-07-24T15:03:16.918Z,11.27
2018-07-24T15:05:46.282Z,10.10
2018-07-24T15:08:16.092Z,9.80
2018-07-24T15:10:45.814Z,9.90
2018-07-24T15:13:15.064Z,11.00
2018-07-24T15:15:44.905Z,10.13
2018-07-24T15:18:15.170Z,10.70
2018-07-24T15:20:45.655Z,10.17
2018-07-24T15:23:15.092Z,10.57
2018-07-24T15:25:44.779Z,10.50
2018-07-24T15:28:14.237Z,10.53
2018-07-24T15:30:44.042Z,12.40
2018-07-24T15:33:13.471Z,11.07
2018-07-24T15:35:43.644Z,10.80
2018-07-24T15:38:12.867Z,11.60
2018-07-24T15:40:42.110Z,11.10
2018-07-24T15:43:11.318Z,11.50
2018-07-24T15:45:43.102Z,12.50
2018-07-24T15:48:12.169Z,15.73
2018-07-24T15:50:43.361Z,10.83
2018-07-24T15:53:13.309Z,10.80
2018-07-24T15:55:42.491Z,10.67
2018-07-24T15:58:11.826Z,10.63
2018-07-24T16:00:40.931Z,11.00
2018-07-24T16:03:10.038Z,11.33
2018-07-24T16:05:39.173Z,13.03
2018-07-24T16:08:08.333Z,10.60
2018-07-24T16:10:38.059Z,10.83
2018-07-24T16:13:07.146Z,10.70
2018-07-24T16:15:36.305Z,10.83
2018-07-24T16:18:05.363Z,10.20
2018-07-24T16:20:34.468Z,11.53
2018-07-24T16:23:03.851Z,9.70
2018-07-24T16:25:34.009Z,11.20
2018-07-24T16:28:03.661Z,9.77
2018-07-24T16:30:32.835Z,9.37
2018-07-24T16:33:02.169Z,9.80
2018-07-24T16:35:31.502Z,9.30
2018-07-24T16:38:00.661Z,10.73
2018-07-24T16:40:29.805Z,10.33
2018-07-24T16:42:58.980Z,12.40
2018-07-24T16:45:28.782Z,10.43
2018-07-24T16:47:58.652Z,11.40
2018-07-24T16:50:28.096Z,11.43
2018-07-24T16:52:57.397Z,10.53
2018-07-24T16:55:26.717Z,10.97
2018-07-24T16:57:56.051Z,10.57
2018-07-24T17:00:25.136Z,11.40
2018-07-24T17:02:54.345Z,10.50
2018-07-24T17:05:23.807Z,11.60
2018-07-24T17:07:52.965Z,11.63
2018-07-24T17:10:22.156Z,11.33
2018-07-24T17:12:52.008Z,12.90
2018-07-24T17:15:21.114Z,14.43
2018-07-24T17:17:50.242Z,11.00
2018-07-24T17:20:19.492Z,9.83
2018-07-24T17:22:49.208Z,9.90
2018-07-24T17:25:19.126Z,10.57
2018-07-24T17:27:49.009Z,10.23
2018-07-24T17:30:18.069Z,10.47
2018-07-24T17:32:47.230Z,10.53
2018-07-24T17:35:16.404Z,10.97
2018-07-24T17:37:46.346Z,9.70
2018-07-24T17:40:15.705Z,11.50
2018-07-24T17:42:44.859Z,10.73
2018-07-24T17:45:14.372Z,10.33
2018-07-24T17:47:43.477Z,11.00
2018-07-24T17:50:12.581Z,9.57
2018-07-24T17:52:41.707Z,11.10
2018-07-24T17:55:10.847Z,10.23
2018-07-24T17:57:39.713Z,10.20
2018-07-24T18:00:09.039Z,10.70
2018-07-24T18:02:38.117Z,12.17
2018-07-24T18:05:07.254Z,11.07
2018-07-24T18:07:36.914Z,10.83
2018-07-24T18:10:06.058Z,10.60
2018-07-24T18:12:35.187Z,10.70
2018-07-24T18:15:04.759Z,11.60
2018-07-24T18:17:34.294Z,13.10
2018-07-24T18:20:03.542Z,13.30
2018-07-24T18:22:34.451Z,9.53
2018-07-24T18:25:05.657Z,12.13
2018-07-24T18:27:34.814Z,11.47
2018-07-24T18:30:03.963Z,12.73
2018-07-24T18:32:33.701Z,12.27
2018-07-24T18:35:02.830Z,11.13
2018-07-24T18:37:31.923Z,14.10
2018-07-24T18:40:01.034Z,11.87
2018-07-24T18:42:30.182Z,12.23
2018-07-24T18:44:59.299Z,15.63
2018-07-24T18:47:28.446Z,11.63
2018-07-24T18:49:58.756Z,12.53
2018-07-24T18:52:27.842Z,12.97
2018-07-24T18:54:57.054Z,11.07
2018-07-24T18:57:26.199Z,11.90
2018-07-24T18:59:55.444Z,12.60
2018-07-24T19:02:24.594Z,12.23
2018-07-24T19:04:55.221Z,17.70
2018-07-24T19:07:24.415Z,12.60
2018-07-24T19:09:53.919Z,14.10
2018-07-24T19:12:23.065Z,13.53
2018-07-24T19:14:52.235Z,16.93
2018-07-24T19:17:21.382Z,12.07
2018-07-24T19:19:50.606Z,11.57
2018-07-24T19:22:19.794Z,11.97
2018-07-24T19:24:50.525Z,12.97
2018-07-24T19:27:19.650Z,12.10
2018-07-24T19:29:49.205Z,10.70
2018-07-24T19:32:18.875Z,12.90
2018-07-24T19:34:48.073Z,12.00
2018-07-24T19:37:17.161Z,11.80
2018-07-24T19:39:46.276Z,13.83
2018-07-24T19:42:15.458Z,14.60
2018-07-24T19:44:44.643Z,14.17
2018-07-24T19:47:13.738Z,13.23
2018-07-24T19:49:42.917Z,13.33
2018-07-24T19:52:12.019Z,12.10
2018-07-24T19:54:41.471Z,12.30
2018-07-24T19:57:10.617Z,12.60
2018-07-24T19:59:40.051Z,13.00
2018-07-24T20:02:09.359Z,13.30
2018-07-24T20:04:38.751Z,12.97
2018-07-24T20:07:07.844Z,12.77
2018-07-24T20:09:36.989Z,12.03
2018-07-24T20:12:06.095Z,12.77
2018-07-24T20:14:35.215Z,12.60
2018-07-24T20:17:04.350Z,14.97
2018-07-24T20:19:33.442Z,15.27
2018-07-24T20:22:02.539Z,16.47
2018-07-24T20:24:31.684Z,16.40
2018-07-24T20:27:00.790Z,16.30
2018-07-24T20:29:29.928Z,16.17
2018-07-24T20:31:59.018Z,18.60
2018-07-24T20:34:28.106Z,16.30
2018-07-24T20:36:57.386Z,14.63
2018-07-24T20:39:26.530Z,13.00
2018-07-24T20:41:55.646Z,16.10
2018-07-24T20:44:24.746Z,14.47
2018-07-24T20:46:53.832Z,14.93
2018-07-24T20:49:22.958Z,15.47
2018-07-24T20:51:52.120Z,14.57
2018-07-24T20:54:21.214Z,16.03
2018-07-24T20:56:50.354Z,18.67
2018-07-24T20:59:19.537Z,13.77
2018-07-24T21:01:48.877Z,14.63
2018-07-24T21:04:18.146Z,14.27
2018-07-24T21:06:47.424Z,18.73
2018-07-24T21:09:16.191Z,14.00
2018-07-24T21:11:45.668Z,13.40
2018-07-24T21:14:14.802Z,15.27
2018-07-24T21:16:43.954Z,16.70
2018-07-24T21:19:13.103Z,14.30
2018-07-24T21:21:42.207Z,20.60
2018-07-24T21:24:12.118Z,16.63
2018-07-24T21:26:41.042Z,16.30
2018-07-24T21:29:10.171Z,15.67
2018-07-24T21:31:39.272Z,16.67
2018-07-24T21:34:08.439Z,14.40
2018-07-24T21:36:37.635Z,16.77
2018-07-24T21:39:10.066Z,15.27
2018-07-24T21:41:39.278Z,15.93
2018-07-24T21:44:08.558Z,14.40
2018-07-24T21:46:37.929Z,15.37
2018-07-24T21:49:07.110Z,15.57
2018-07-24T21:51:36.182Z,15.30
2018-07-24T21:54:05.296Z,15.10
2018-07-24T21:56:34.427Z,16.43
2018-07-24T21:59:03.516Z,14.73
2018-07-24T22:01:32.607Z,15.93
2018-07-24T22:04:01.962Z,16.30
2018-07-24T22:06:31.046Z,16.13
2018-07-24T22:09:00.364Z,16.53
2018-07-24T22:11:29.276Z,19.10
2018-07-24T22:13:58.370Z,16.03
2018-07-24T22:16:27.493Z,16.47
2018-07-24T22:18:57.000Z,20.50
2018-07-24T22:21:26.130Z,15.83
2018-07-24T22:23:55.246Z,16.40
2018-07-24T22:26:24.394Z,28.83
2018-07-24T22:28:53.494Z,17.30
2018-07-24T22:31:22.798Z,18.20
2018-07-24T22:33:52.152Z,17.83
2018-07-24T22:36:21.509Z,26.43
2018-07-24T22:38:51.522Z,19.37
2018-07-24T22:41:20.620Z,18.53
2018-07-24T22:43:49.722Z,18.03
2018-07-24T22:46:19.746Z,17.53
2018-07-24T22:48:49.890Z,21.80
2018-07-24T22:51:19.098Z,15.87
2018-07-24T22:53:47.743Z,21.23
2018-07-24T22:56:16.896Z,18.07
2018-07-24T22:58:45.994Z,18.97
2018-07-24T23:01:15.284Z,17.30
2018-07-24T23:03:44.828Z,18.50
2018-07-24T23:06:14.101Z,19.37
2018-07-24T23:08:43.190Z,19.20
2018-07-24T23:11:12.286Z,18.73
2018-07-24T23:13:41.428Z,20.00
2018-07-24T23:16:10.561Z,20.77
2018-07-24T23:18:39.689Z,19.37
2018-07-24T23:21:08.786Z,24.17
2018-07-24T23:23:38.533Z,22.27
2018-07-24T23:26:08.373Z,22.97
2018-07-24T23:28:39.069Z,21.90
2018-07-24T23:31:08.170Z,19.20
2018-07-24T23:33:37.253Z,19.67
2018-07-24T23:36:06.363Z,22.13
2018-07-24T23:38:35.446Z,21.40
2018-07-24T23:41:04.529Z,21.00
2018-07-24T23:43:33.686Z,25.60
2018-07-24T23:46:02.798Z,21.77
2018-07-24T23:48:31.877Z,24.50
2018-07-24T23:51:01.026Z,22.20
2018-07-24T23:53:29.778Z,23.07
2018-07-24T23:55:58.914Z,23.80
2018-07-24T23:58:28.055Z,22.33
